Time;durP1;ratioP1;P1;durP2;ratioP2;P2;SDS_P1;SDS_P2;PMS_P1;PMS_P2;Temp;Humidity;BMP_temperature;BMP_pressure;BME280_temperature;BME280_humidity;BME280_pressure;Samples;Min_cycle;Max_cycle;Signal;HPM_P1;HPM_P2
2022/07/24 00:01:25;;;;;;;16.17;7.75;;;;;;;25.91;39.58;94775.47;4212817;28;20048;-56
2022/07/24 00:03:27;;;;;;;18.00;7.75;;;;;;;25.92;39.18;94771.72;4225708;28;20056;-54
2022/07/24 00:05:30;;;;;;;11.93;7.25;;;;;;;25.92;39.20;94771.72;4217834;28;20574;-54
2022/07/24 00:07:34;;;;;;;15.60;7.60;;;;;;;25.93;39.29;94768.00;4228258;28;20120;-55
2022/07/24 00:09:36;;;;;;;16.83;8.45;;;;;;;25.92;39.04;94763.66;4229001;28;20134;-56
2022/07/24 00:11:37;;;;;;;11.45;7.35;;;;;;;25.98;39.32;94769.91;4215271;28;20119;-55
2022/07/24 00:13:39;;;;;;;14.05;7.63;;;;;;;25.99;39.07;94774.22;4212653;28;20055;-55
2022/07/24 00:15:41;;;;;;;19.60;7.88;;;;;;;25.98;39.30;94776.06;4212730;28;20071;-56
2022/07/24 00:17:43;;;;;;;12.85;7.88;;;;;;;26.00;39.37;94779.31;4203419;28;20043;-56
2022/07/24 00:19:45;;;;;;;12.60;7.50;;;;;;;26.03;39.08;94775.31;4208691;28;20159;-57
2022/07/24 00:21:46;;;;;;;14.25;7.68;;;;;;;26.01;39.45;94770.22;4194182;28;20060;-55
2022/07/24 00:23:48;;;;;;;10.20;6.65;;;;;;;26.02;39.33;94769.13;4199066;28;20066;-56
2022/07/24 00:25:51;;;;;;;13.75;6.57;;;;;;;26.02;38.72;94771.81;4205251;28;20496;-56
2022/07/24 00:27:52;;;;;;;16.10;7.35;;;;;;;26.01;38.97;94770.22;4211079;28;20052;-56
2022/07/24 00:29:54;;;;;;;11.45;6.80;;;;;;;25.96;39.25;94772.84;4212180;28;20380;-55
2022/07/24 00:31:56;;;;;;;13.35;7.15;;;;;;;25.91;38.90;94760.19;4218256;28;20110;-55
2022/07/24 00:33:58;;;;;;;13.50;6.97;;;;;;;25.91;39.02;94767.44;4212072;28;20048;-56
2022/07/24 00:36:00;;;;;;;11.90;6.57;;;;;;;25.88;39.36;94766.06;4211950;28;20541;-56
2022/07/24 00:38:02;;;;;;;13.85;7.10;;;;;;;25.86;39.82;94770.03;4200660;28;20050;-55
2022/07/24 00:40:04;;;;;;;10.30;6.38;;;;;;;25.84;39.52;94762.22;4197711;28;20044;-55
2022/07/24 00:42:06;;;;;;;12.70;6.70;;;;;;;25.82;39.74;94760.88;4200236;28;20059;-55
2022/07/24 00:44:10;;;;;;;13.57;7.22;;;;;;;25.78;39.76;94768.59;4211849;28;20048;-55
2022/07/24 00:46:12;;;;;;;9.60;6.45;;;;;;;25.78;39.74;94765.91;4201267;28;20106;-54
2022/07/24 00:48:16;;;;;;;16.67;6.78;;;;;;;25.77;39.84;94758.13;4204293;28;20139;-55
2022/07/24 00:50:20;;;;;;;13.68;6.97;;;;;;;25.77;39.94;94766.16;4197711;28;20056;-55
2022/07/24 00:52:22;;;;;;;10.68;7.18;;;;;;;25.76;40.17;94765.38;4204100;28;20048;-55
2022/07/24 00:54:24;;;;;;;13.98;7.43;;;;;;;25.74;40.66;94760.25;4195248;28;20056;-53
2022/07/24 00:56:25;;;;;;;16.23;7.25;;;;;;;25.72;40.69;94762.38;4195223;28;20140;-54
2022/07/24 00:58:27;;;;;;;15.88;7.63;;;;;;;25.60;40.51;94760.88;4195041;28;20049;-55
2022/07/24 01:00:29;;;;;;;11.90;6.80;;;;;;;25.53;40.15;94761.09;4208943;28;20047;-55
2022/07/24 01:02:31;;;;;;;13.93;6.63;;;;;;;25.44;39.60;94760.72;4194161;28;20064;-56
2022/07/24 01:04:32;;;;;;;11.13;6.43;;;;;;;25.33;40.06;94761.66;4201471;28;20673;-57
2022/07/24 01:06:35;;;;;;;12.55;6.90;;;;;;;25.29;39.78;94761.34;4208788;28;20052;-57
2022/07/24 01:08:36;;;;;;;16.95;6.68;;;;;;;24.99;40.26;94772.44;4211424;28;20132;-58
2022/07/24 01:10:38;;;;;;;14.32;6.57;;;;;;;24.73;40.71;94768.59;4196638;28;20049;-58
2022/07/24 01:12:41;;;;;;;12.80;7.22;;;;;;;24.50;41.26;94773.09;4211500;28;20614;-59
2022/07/24 01:14:43;;;;;;;13.38;6.80;;;;;;;24.01;42.14;94780.03;4211139;28;20052;-58
2022/07/24 01:16:44;;;;;;;15.82;7.05;;;;;;;23.67;42.43;94767.34;4219917;28;20056;-59
2022/07/24 01:18:46;;;;;;;12.20;6.68;;;;;;;23.78;42.69;94773.72;4215640;28;20095;-57
2022/07/24 01:20:49;;;;;;;15.25;6.28;;;;;;;23.92;42.32;94756.31;4223473;28;20047;-58
2022/07/24 01:22:51;;;;;;;10.13;5.90;;;;;;;24.07;42.28;94762.97;4210147;28;20040;-59
2022/07/24 01:24:54;;;;;;;14.40;6.70;;;;;;;24.22;42.09;94759.75;4217956;28;20492;-57
2022/07/24 01:26:56;;;;;;;14.73;6.80;;;;;;;24.33;41.81;94759.69;4227050;28;20606;-58
2022/07/24 01:28:58;;;;;;;10.10;6.35;;;;;;;24.45;41.54;94751.56;4215878;28;20116;-57
2022/07/24 01:30:59;;;;;;;14.38;6.53;;;;;;;24.58;41.46;94749.63;4226996;28;20063;-56
2022/07/24 01:33:01;;;;;;;10.82;6.10;;;;;;;24.67;41.22;94756.19;4209668;28;20052;-56
2022/07/24 01:35:05;;;;;;;11.02;6.07;;;;;;;24.69;41.01;94754.91;4214316;28;20477;-55
2022/07/24 01:37:07;;;;;;;11.85;6.60;;;;;;;24.72;41.05;94753.59;4225451;28;20077;-57
2022/07/24 01:39:08;;;;;;;9.55;5.85;;;;;;;24.67;40.49;94756.19;4219709;28;20146;-56
2022/07/24 01:41:10;;;;;;;12.13;6.43;;;;;;;24.62;40.94;94756.94;4212568;28;20055;-57
2022/07/24 01:43:13;;;;;;;13.85;6.10;;;;;;;24.47;40.75;94756.69;4224365;28;20077;-57
2022/07/24 01:45:14;;;;;;;13.07;6.80;;;;;;;24.43;40.71;94761.69;4222625;28;20048;-60
2022/07/24 01:47:16;;;;;;;10.05;6.35;;;;;;;24.35;40.93;94747.91;4209840;28;20044;-57
2022/07/24 01:49:18;;;;;;;16.55;6.25;;;;;;;24.31;41.54;94748.41;4218697;28;20040;-59
2022/07/24 01:51:20;;;;;;;9.77;5.80;;;;;;;24.37;40.93;94737.75;4215052;28;20048;-56
2022/07/24 01:53:21;;;;;;;8.60;6.00;;;;;;;24.42;41.08;94745.91;4209160;28;20131;-58
2022/07/24 01:55:23;;;;;;;9.82;6.05;;;;;;;24.49;41.31;94742.00;4211694;28;20535;-56
2022/07/24 01:57:25;;;;;;;12.73;6.43;;;;;;;24.57;41.62;94740.00;4221534;28;20125;-57
2022/07/24 01:59:30;;;;;;;15.38;7.20;;;;;;;24.58;41.87;94739.72;4210330;28;20047;-57
2022/07/24 02:01:33;;;;;;;13.52;7.35;;;;;;;24.60;42.21;94734.94;4209463;28;20512;-57
2022/07/24 02:03:35;;;;;;;13.37;7.30;;;;;;;24.67;42.40;94737.44;4223771;28;20047;-57
2022/07/24 02:05:36;;;;;;;11.38;7.40;;;;;;;24.70;42.72;94736.97;4209604;28;20341;-57
2022/07/24 02:07:39;;;;;;;11.85;7.95;;;;;;;24.73;42.75;94739.94;4208607;28;20048;-58
2022/07/24 02:09:41;;;;;;;14.40;8.55;;;;;;;24.72;42.84;94737.53;4217491;28;20093;-57
2022/07/24 02:11:43;;;;;;;11.63;8.07;;;;;;;24.70;42.86;94734.28;4216023;28;20207;-57
2022/07/24 02:13:45;;;;;;;17.77;7.18;;;;;;;24.63;42.03;94739.81;4210249;28;20074;-58
2022/07/24 02:15:47;;;;;;;10.32;6.70;;;;;;;24.49;40.49;94733.16;4209600;28;20089;-58
2022/07/24 02:17:50;;;;;;;13.25;6.32;;;;;;;24.03;40.80;94737.78;4222065;28;20060;-57
2022/07/24 02:19:52;;;;;;;10.95;6.32;;;;;;;23.77;41.52;94736.50;4212734;28;20460;-58
2022/07/24 02:21:54;;;;;;;11.50;6.28;;;;;;;23.81;42.06;94734.97;4220179;28;20055;-56
2022/07/24 02:23:55;;;;;;;10.35;6.15;;;;;;;23.91;41.60;94735.16;4221254;28;20051;-58
2022/07/24 02:25:57;;;;;;;9.38;5.43;;;;;;;24.04;41.26;94734.03;4209403;28;20059;-57
2022/07/24 02:27:59;;;;;;;14.23;6.53;;;;;;;24.13;41.09;94729.91;4209362;28;20055;-57
2022/07/24 02:30:01;;;;;;;13.45;6.03;;;;;;;24.21;40.95;94739.41;4217135;28;20526;-57
2022/07/24 02:32:03;;;;;;;12.07;5.90;;;;;;;23.96;41.08;94748.59;4226291;28;20489;-56
2022/07/24 02:34:05;;;;;;;13.88;6.85;;;;;;;23.50;42.16;94748.56;4216365;28;20192;-57
2022/07/24 02:36:07;;;;;;;10.60;5.93;;;;;;;23.27;42.81;94746.81;4209834;28;20077;-56
2022/07/24 02:38:09;;;;;;;18.42;7.43;;;;;;;23.31;43.06;94749.78;4209765;28;20337;-57
2022/07/24 02:40:11;;;;;;;14.60;7.45;;;;;;;23.39;43.29;94748.63;4207617;28;20060;-56
2022/07/24 02:42:13;;;;;;;12.97;6.77;;;;;;;23.43;43.01;94752.44;4211955;28;20048;-58
2022/07/24 02:44:16;;;;;;;11.15;7.10;;;;;;;23.52;43.33;94751.81;4219760;28;20052;-57
2022/07/24 02:46:17;;;;;;;12.27;7.47;;;;;;;23.61;43.47;94760.25;4209293;28;20047;-59
2022/07/24 02:48:20;;;;;;;12.52;7.05;;;;;;;23.68;43.22;94758.28;4210784;28;20044;-56
2022/07/24 02:50:24;;;;;;;13.30;7.03;;;;;;;23.77;43.27;94753.38;4223012;28;20127;-59
2022/07/24 02:52:25;;;;;;;13.35;7.57;;;;;;;23.85;43.21;94744.94;4207919;28;20052;-56
2022/07/24 02:54:27;;;;;;;10.07;6.85;;;;;;;23.89;42.85;94737.25;4214890;28;20051;-57
2022/07/24 02:56:29;;;;;;;13.43;7.35;;;;;;;23.95;42.80;94736.28;4225311;28;20373;-57
2022/07/24 02:58:31;;;;;;;15.90;7.82;;;;;;;24.01;42.76;94737.22;4214728;28;20052;-57
2022/07/24 03:00:32;;;;;;;14.23;7.60;;;;;;;24.02;42.81;94747.66;4208759;28;20090;-58
2022/07/24 03:02:34;;;;;;;13.05;7.13;;;;;;;23.99;43.07;94748.16;4222117;28;20111;-57
2022/07/24 03:04:36;;;;;;;19.50;8.18;;;;;;;23.89;43.58;94750.63;4209262;28;20043;-58
2022/07/24 03:06:38;;;;;;;16.92;8.35;;;;;;;23.67;44.02;94748.63;4210390;28;20056;-55
2022/07/24 03:08:41;;;;;;;14.45;7.32;;;;;;;23.62;44.00;94747.72;4217913;28;20055;-55
2022/07/24 03:10:43;;;;;;;12.93;6.93;;;;;;;23.67;44.24;94748.63;4211635;28;20105;-58
2022/07/24 03:12:45;;;;;;;15.43;8.18;;;;;;;23.75;44.02;94749.28;4213091;28;20177;-57
2022/07/24 03:14:47;;;;;;;13.60;7.28;;;;;;;23.81;43.53;94748.34;4209002;28;20538;-56
2022/07/24 03:16:48;;;;;;;15.23;7.70;;;;;;;23.88;43.38;94743.69;4215838;28;20055;-57
2022/07/24 03:18:50;;;;;;;15.18;8.43;;;;;;;23.91;43.73;94751.22;4225820;28;20219;-57
2022/07/24 03:20:52;;;;;;;11.23;7.53;;;;;;;23.91;43.28;94745.84;4225605;28;20060;-58
2022/07/24 03:22:54;;;;;;;15.70;8.18;;;;;;;23.81;43.88;94759.88;4223056;27;20523;-57
2022/07/24 03:24:56;;;;;;;16.90;8.23;;;;;;;23.53;44.26;94752.63;4212432;28;20413;-58
2022/07/24 03:26:57;;;;;;;14.05;7.47;;;;;;;23.24;44.63;94752.59;4208046;28;20104;-57
2022/07/24 03:28:59;;;;;;;20.42;8.23;;;;;;;22.95;45.25;94746.38;4209988;28;20117;-55
2022/07/24 03:31:01;;;;;;;17.65;8.40;;;;;;;22.87;45.88;94744.88;4225167;28;20623;-56
2022/07/24 03:33:03;;;;;;;21.17;7.65;;;;;;;23.02;45.57;94747.09;4210406;28;20120;-55
2022/07/24 03:35:05;;;;;;;18.98;7.80;;;;;;;23.17;44.79;94743.91;4222199;28;20056;-55
2022/07/24 03:37:07;;;;;;;17.42;7.55;;;;;;;23.34;44.69;94746.66;4213682;28;20044;-50
2022/07/24 03:39:08;;;;;;;15.48;7.35;;;;;;;23.50;44.52;94748.56;4216644;28;20048;-54
2022/07/24 03:41:10;;;;;;;16.05;8.75;;;;;;;23.64;44.05;94751.78;4213348;28;20039;-53
2022/07/24 03:43:12;;;;;;;14.50;7.80;;;;;;;23.74;43.50;94751.16;4209093;28;20511;-53
2022/07/24 03:45:14;;;;;;;14.88;8.35;;;;;;;23.81;43.36;94751.84;4221022;28;20105;-56
2022/07/24 03:47:15;;;;;;;16.40;7.82;;;;;;;23.88;43.29;94746.34;4213900;28;20108;-54
2022/07/24 03:49:17;;;;;;;12.00;6.97;;;;;;;23.92;43.58;94744.81;4225591;28;20043;-54
2022/07/24 03:51:19;;;;;;;10.77;7.00;;;;;;;23.97;43.37;94747.56;4224934;28;20162;-56
2022/07/24 03:53:22;;;;;;;14.02;7.70;;;;;;;24.02;43.57;94744.97;4223880;28;20649;-55
2022/07/24 03:55:24;;;;;;;14.98;7.47;;;;;;;24.01;43.98;94748.72;4208028;28;20052;-56
2022/07/24 03:57:26;;;;;;;11.70;7.93;;;;;;;24.04;43.75;94742.88;4208368;28;20117;-56
2022/07/24 03:59:28;;;;;;;16.10;8.48;;;;;;;24.09;43.72;94740.28;4216466;28;20431;-53
2022/07/24 04:01:29;;;;;;;13.05;7.78;;;;;;;24.15;43.67;94745.72;4223248;28;20621;-54
2022/07/24 04:03:31;;;;;;;12.05;7.45;;;;;;;24.20;43.67;94740.44;4213617;28;20048;-55
2022/07/24 04:05:33;;;;;;;13.15;7.35;;;;;;;24.20;43.78;94746.63;4211003;28;20059;-53
2022/07/24 04:07:36;;;;;;;12.07;7.53;;;;;;;24.21;43.95;94750.91;4211278;28;20377;-54
2022/07/24 04:09:37;;;;;;;13.43;7.85;;;;;;;24.26;44.19;94744.81;4219218;28;20067;-54
2022/07/24 04:11:39;;;;;;;11.95;8.15;;;;;;;24.04;44.43;94752.78;4208893;28;20493;-55
2022/07/24 04:13:41;;;;;;;11.63;7.95;;;;;;;23.88;44.46;94747.16;4208407;28;20056;-54
2022/07/24 04:15:44;;;;;;;17.35;9.20;;;;;;;23.82;44.40;94755.34;4208321;28;20470;-55
2022/07/24 04:17:46;;;;;;;16.52;7.90;;;;;;;23.77;44.48;94753.38;4207180;28;20052;-55
2022/07/24 04:19:47;;;;;;;14.88;8.73;;;;;;;23.85;45.13;94752.97;4208557;28;20448;-54
2022/07/24 04:21:49;;;;;;;14.57;7.88;;;;;;;23.93;44.52;94754.47;4206701;28;20167;-56
2022/07/24 04:23:51;;;;;;;15.27;7.97;;;;;;;23.99;44.40;94753.50;4208712;28;20056;-53
2022/07/24 04:26:10;;;;;;;19.95;8.43;;;;;;;24.14;44.45;94749.47;4222319;28;20061;-56
2022/07/24 04:28:11;;;;;;;22.38;8.20;;;;;;;24.24;44.14;94753.13;4223839;28;20124;-54
2022/07/24 04:30:13;;;;;;;13.60;7.40;;;;;;;24.38;44.18;94753.59;4223402;28;20073;-53
2022/07/24 04:32:15;;;;;;;13.82;8.05;;;;;;;24.50;43.49;94754.34;4216440;28;20496;-51
2022/07/24 04:34:17;;;;;;;14.68;8.20;;;;;;;24.58;42.85;94755.00;4208842;28;20044;-55
2022/07/24 04:36:19;;;;;;;14.32;7.85;;;;;;;24.62;42.64;94756.94;4222295;28;20097;-53
2022/07/24 04:38:20;;;;;;;17.60;8.80;;;;;;;24.68;42.72;94752.47;4206437;28;20668;-52
2022/07/24 04:40:22;;;;;;;11.23;8.02;;;;;;;24.75;42.55;94758.47;4213951;28;20056;-53
2022/07/24 04:42:23;;;;;;;17.80;8.85;;;;;;;24.82;42.52;94761.75;4218827;28;20051;-55
2022/07/24 04:44:25;;;;;;;18.20;8.65;;;;;;;24.87;42.44;94756.50;4211627;28;20055;-56
2022/07/24 04:46:27;;;;;;;20.13;9.63;;;;;;;24.79;42.48;94761.47;4211115;28;20056;-53
2022/07/24 04:48:29;;;;;;;12.63;8.05;;;;;;;23.83;44.64;94770.31;4211833;28;20082;-55
2022/07/24 04:50:30;;;;;;;17.80;9.02;;;;;;;23.61;45.02;94765.63;4227729;28;20446;-56
2022/07/24 04:52:32;;;;;;;13.52;8.20;;;;;;;23.51;45.39;94760.91;4226104;28;20425;-57
2022/07/24 04:54:34;;;;;;;17.52;9.18;;;;;;;23.52;45.24;94762.50;4227471;28;20056;-55
2022/07/24 04:56:35;;;;;;;16.63;9.38;;;;;;;23.53;45.47;94766.00;4227591;28;20116;-53
2022/07/24 04:58:37;;;;;;;21.73;9.45;;;;;;;23.55;45.08;94760.41;4226426;28;20052;-52
2022/07/24 05:00:39;;;;;;;17.35;8.98;;;;;;;23.53;45.01;94757.97;4211610;28;20051;-55
2022/07/24 05:02:41;;;;;;;14.40;8.40;;;;;;;23.61;45.17;94764.81;4217213;28;20060;-53
2022/07/24 05:04:42;;;;;;;14.48;9.27;;;;;;;23.86;44.41;94765.31;4218668;28;20055;-53
2022/07/24 05:06:46;;;;;;;15.73;8.43;;;;;;;24.02;44.14;94769.06;4220907;28;20120;-55
2022/07/24 05:08:47;;;;;;;13.50;8.48;;;;;;;24.17;44.08;94765.03;4226694;28;20056;-55
2022/07/24 05:10:49;;;;;;;17.38;8.30;;;;;;;24.34;43.72;94768.53;4210694;28;20414;-55
2022/07/24 05:12:51;;;;;;;15.45;8.20;;;;;;;24.54;43.17;94768.06;4216747;28;20056;-56
2022/07/24 05:14:52;;;;;;;16.92;8.98;;;;;;;24.63;43.09;94780.00;4218912;28;20052;-55
2022/07/24 05:16:54;;;;;;;22.58;9.68;;;;;;;24.61;43.53;94778.59;4210110;28;20063;-56
2022/07/24 05:18:56;;;;;;;17.77;9.52;;;;;;;24.50;43.85;94780.31;4210750;28;20060;-55
2022/07/24 05:20:57;;;;;;;15.00;8.77;;;;;;;24.39;43.80;94781.97;4210461;28;20044;-55
2022/07/24 05:22:59;;;;;;;21.25;10.00;;;;;;;24.33;43.97;94775.75;4223842;28;20047;-54
2022/07/24 05:25:00;;;;;;;18.42;9.52;;;;;;;24.49;43.90;94779.50;4223276;27;20040;-53
2022/07/24 05:27:02;;;;;;;15.15;8.82;;;;;;;24.68;43.62;94772.03;4210473;28;20040;-52
2022/07/24 05:29:13;;;;;;;16.75;8.98;;;;;;;24.91;43.20;94773.69;4213695;28;20100;-55
2022/07/24 05:31:14;;;;;;;20.52;9.15;;;;;;;25.12;42.34;94771.28;4225821;28;20043;-52
2022/07/24 05:33:16;;;;;;;14.75;9.73;;;;;;;25.19;42.18;94768.41;4226414;28;20062;-55
2022/07/24 05:35:18;;;;;;;14.95;8.98;;;;;;;25.32;41.78;94768.09;4221288;28;20048;-55
2022/07/24 05:37:29;;;;;;;15.98;8.75;;;;;;;25.46;41.48;94773.88;4218188;28;20140;-55
2022/07/24 05:39:31;;;;;;;18.42;8.93;;;;;;;25.56;41.34;94771.31;4214943;28;20559;-56
2022/07/24 05:41:32;;;;;;;17.70;9.68;;;;;;;25.67;40.88;94773.06;4210062;28;20040;-55
2022/07/24 05:43:34;;;;;;;19.52;8.90;;;;;;;25.80;40.72;94763.78;4218989;28;20055;-55
2022/07/24 05:45:36;;;;;;;17.63;9.35;;;;;;;25.92;40.57;94766.34;4222929;28;20055;-54
2022/07/24 05:47:38;;;;;;;17.00;9.05;;;;;;;26.06;40.23;94766.75;4226208;28;20051;-52
2022/07/24 05:49:40;;;;;;;13.00;8.63;;;;;;;26.14;39.99;94763.63;4226885;28;20128;-55
2022/07/24 05:51:42;;;;;;;18.17;10.02;;;;;;;26.19;39.43;94763.66;4210510;28;20055;-55
2022/07/24 05:53:45;;;;;;;17.90;8.02;;;;;;;26.24;39.40;94760.22;4212353;28;20593;-56
2022/07/24 05:55:47;;;;;;;16.65;9.45;;;;;;;26.24;39.50;94758.34;4221210;28;20055;-57
2022/07/24 05:57:49;;;;;;;17.90;8.82;;;;;;;26.29;39.45;94769.13;4209512;28;20139;-56
2022/07/24 05:59:50;;;;;;;16.20;8.38;;;;;;;26.38;39.16;94758.72;4209753;28;20067;-56
2022/07/24 06:01:52;;;;;;;19.73;8.95;;;;;;;26.49;39.09;94760.41;4220220;28;20183;-54
2022/07/24 06:03:54;;;;;;;23.17;8.90;;;;;;;26.57;39.29;94753.00;4211669;28;20083;-56
2022/07/24 06:05:56;;;;;;;15.43;8.60;;;;;;;26.67;38.96;94751.19;4221723;28;20055;-59
2022/07/24 06:07:57;;;;;;;14.25;8.68;;;;;;;26.74;38.99;94753.66;4208126;28;20056;-55
2022/07/24 06:09:59;;;;;;;14.75;8.73;;;;;;;26.80;38.83;94757.97;4209775;28;20054;-54
2022/07/24 06:12:01;;;;;;;17.02;9.13;;;;;;;26.89;38.82;94763.69;4209848;28;20765;-58
2022/07/24 06:14:03;;;;;;;14.57;9.43;;;;;;;26.94;38.90;94761.00;4209083;28;20052;-57
2022/07/24 06:16:05;;;;;;;15.77;8.82;;;;;;;27.00;38.69;94765.34;4208140;28;20052;-55
2022/07/24 06:18:07;;;;;;;17.73;8.95;;;;;;;26.94;38.54;94761.81;4215703;28;20044;-57
2022/07/24 06:20:12;;;;;;;16.33;8.95;;;;;;;26.89;37.37;94764.50;4215144;28;20502;-56
2022/07/24 06:22:14;;;;;;;17.38;8.73;;;;;;;26.83;38.26;94760.16;4208187;28;20078;-55
2022/07/24 06:24:16;;;;;;;18.38;9.40;;;;;;;26.68;38.38;94762.75;4209146;28;20059;-55
2022/07/24 06:26:17;;;;;;;15.60;8.50;;;;;;;26.63;38.70;94754.63;4209404;28;20056;-56
2022/07/24 06:28:20;;;;;;;15.85;9.75;;;;;;;26.67;39.00;94750.34;4209514;28;20109;-55
2022/07/24 06:30:23;;;;;;;18.48;9.10;;;;;;;26.69;39.27;94751.72;4221361;28;20101;-53
2022/07/24 06:32:25;;;;;;;19.58;8.75;;;;;;;26.76;38.25;94743.44;4215552;28;20409;-55
2022/07/24 06:34:27;;;;;;;18.45;8.98;;;;;;;26.83;37.98;94752.09;4209783;28;20060;-54
2022/07/24 06:36:28;;;;;;;26.15;19.75;;;;;;;26.92;37.66;94750.50;4209904;28;20044;-54
2022/07/24 06:38:30;;;;;;;18.65;10.10;;;;;;;26.80;37.12;94739.16;4208363;28;20051;-53
2022/07/24 06:40:34;;;;;;;17.95;10.48;;;;;;;26.59;37.82;94748.16;4215554;28;20043;-53
2022/07/24 06:42:35;;;;;;;18.35;11.45;;;;;;;26.62;38.00;94743.06;4216955;28;20072;-55
2022/07/24 06:44:38;;;;;;;20.00;9.48;;;;;;;26.65;37.92;94739.88;4210396;28;20229;-57
2022/07/24 06:46:40;;;;;;;17.63;8.52;;;;;;;26.81;37.26;94735.41;4221085;28;20052;-54
2022/07/24 06:48:42;;;;;;;18.83;9.50;;;;;;;27.06;37.12;94728.53;4226167;28;20063;-55
2022/07/24 06:50:44;;;;;;;19.45;9.57;;;;;;;27.23;37.07;94731.88;4219817;28;20472;-56
2022/07/24 06:52:45;;;;;;;21.58;8.82;;;;;;;27.44;36.55;94734.66;4207031;28;20177;-55
2022/07/24 06:54:47;;;;;;;20.23;9.15;;;;;;;27.35;36.50;94735.16;4209258;28;20067;-54
2022/07/24 06:56:49;;;;;;;14.02;8.73;;;;;;;27.16;36.55;94733.97;4208870;28;20201;-56
2022/07/24 06:58:53;;;;;;;13.65;8.13;;;;;;;26.96;37.15;94734.69;4209060;28;20854;-51
2022/07/24 07:00:54;;;;;;;17.15;7.82;;;;;;;27.13;37.39;94726.44;4210201;28;20449;-52
2022/07/24 07:02:56;;;;;;;15.43;8.02;;;;;;;27.36;36.70;94722.50;4208652;28;20060;-53
2022/07/24 07:04:57;;;;;;;15.40;8.45;;;;;;;27.64;36.71;94726.66;4218383;28;20052;-49
2022/07/24 07:06:59;;;;;;;14.60;7.95;;;;;;;27.79;36.56;94731.22;4222802;28;20112;-51
2022/07/24 07:09:01;;;;;;;18.50;8.85;;;;;;;27.73;36.43;94724.25;4211090;28;20405;-51
2022/07/24 07:11:03;;;;;;;17.80;8.00;;;;;;;27.61;36.28;94724.47;4211328;28;20446;-51
2022/07/24 07:13:05;;;;;;;12.10;8.23;;;;;;;27.75;36.41;94727.47;4216757;28;20502;-52
2022/07/24 07:15:08;;;;;;;16.40;8.45;;;;;;;27.89;35.75;94733.19;4225336;28;20128;-53
2022/07/24 07:17:10;;;;;;;;;;;;;;;28.09;35.53;94725.13;4212795;28;20064;-51
2022/07/24 07:19:12;;;;;;;48.00;35.55;;;;;;;28.26;35.75;94729.44;4220157;28;20018;-52
2022/07/24 07:21:13;;;;;;;30.35;20.17;;;;;;;28.42;35.46;94727.56;4220234;28;20101;-51
2022/07/24 07:23:15;;;;;;;14.55;8.45;;;;;;;28.54;35.42;94728.91;4210169;28;20040;-55
2022/07/24 07:25:17;;;;;;;15.68;8.30;;;;;;;28.57;34.92;94728.38;4215384;28;20073;-49
2022/07/24 07:27:18;;;;;;;13.95;8.80;;;;;;;28.59;34.98;94723.53;4217261;28;20043;-53
2022/07/24 07:29:20;;;;;;;16.73;9.23;;;;;;;28.51;34.39;94723.28;4220346;28;20047;-54
2022/07/24 07:31:26;;;;;;;16.63;9.48;;;;;;;28.22;34.82;94722.97;4224587;28;20160;-50
2022/07/24 07:33:28;;;;;;;16.80;8.32;;;;;;;28.16;34.87;94722.97;4220315;28;20050;-50
2022/07/24 07:35:29;;;;;;;20.88;11.00;;;;;;;28.29;34.72;94726.22;4208062;28;20094;-55
2022/07/24 07:37:31;;;;;;;17.55;8.65;;;;;;;28.44;34.76;94733.47;4207119;28;20078;-58
2022/07/24 07:39:33;;;;;;;16.45;8.60;;;;;;;28.36;34.12;94729.44;4207344;28;20089;-59
2022/07/24 07:41:35;;;;;;;17.80;8.90;;;;;;;28.32;34.67;94717.59;4208419;28;20044;-52
2022/07/24 07:43:37;;;;;;;23.17;14.38;;;;;;;28.36;34.64;94721.34;4213159;28;20047;-56
2022/07/24 07:45:39;;;;;;;19.50;11.90;;;;;;;28.52;34.36;94720.31;4213312;27;20458;-50
2022/07/24 07:47:41;;;;;;;14.98;9.32;;;;;;;28.73;34.68;94714.88;4212908;28;20455;-54
2022/07/24 07:49:43;;;;;;;14.27;8.93;;;;;;;28.97;33.66;94715.91;4221623;28;20059;-53
2022/07/24 07:51:47;;;;;;;14.20;8.20;;;;;;;29.13;33.64;94714.00;4222875;28;20074;-56
2022/07/24 07:53:50;;;;;;;15.15;8.57;;;;;;;29.02;33.65;94717.78;3512007;27;10000320;-60
2022/07/24 07:55:52;;;;;;;17.02;8.25;;;;;;;28.95;33.49;94712.69;4224447;28;20055;-46
2022/07/24 07:57:53;;;;;;;14.05;8.00;;;;;;;28.91;34.06;94724.25;4214368;28;20648;-52
2022/07/24 08:00:06;;;;;;;18.38;8.23;;;;;;;29.01;33.62;94718.84;4220997;28;20056;-47
2022/07/24 08:02:08;;;;;;;15.65;7.80;;;;;;;29.05;33.69;94724.50;4220388;28;20607;-47
2022/07/24 08:04:10;;;;;;;15.82;8.85;;;;;;;29.19;33.90;94726.38;4211592;28;20050;-50
2022/07/24 08:06:12;;;;;;;15.40;7.82;;;;;;;29.28;33.96;94721.22;4223929;28;20526;-48
2022/07/24 08:08:16;;;;;;;16.48;8.13;;;;;;;29.50;33.27;94718.16;4211811;28;20058;-47
2022/07/24 08:10:17;;;;;;;17.17;8.80;;;;;;;29.58;33.33;94719.47;4207128;28;20453;-51
2022/07/24 08:12:22;;;;;;;13.88;8.30;;;;;;;29.67;33.11;94720.47;4208439;28;20051;-49
2022/07/24 08:14:23;;;;;;;16.33;8.18;;;;;;;29.61;32.99;94729.69;4226407;28;20104;-48
2022/07/24 08:16:25;;;;;;;14.55;8.80;;;;;;;29.73;33.03;94727.50;4226532;28;20398;-49
2022/07/24 08:18:27;;;;;;;19.15;8.98;;;;;;;29.83;33.10;94717.72;4226715;28;20360;-45
2022/07/24 08:20:29;;;;;;;13.65;8.15;;;;;;;29.91;32.82;94717.13;4218114;28;20048;-48
2022/07/24 08:22:30;;;;;;;14.00;8.05;;;;;;;29.92;32.29;94722.25;4219948;28;20631;-46
2022/07/24 08:24:32;;;;;;;16.92;8.48;;;;;;;30.08;31.86;94720.25;4216068;28;20048;-47
2022/07/24 08:26:34;;;;;;;15.80;8.13;;;;;;;30.23;31.98;94716.63;4211130;28;20051;-48
2022/07/24 08:30:56;;;;;;;15.43;8.50;;;;;;;30.68;31.49;94714.66;4217016;28;20051;-52
2022/07/24 08:32:58;;;;;;;16.42;9.15;;;;;;;30.74;31.47;94720.78;4216360;28;20055;-55
2022/07/24 08:35:00;;;;;;;16.67;9.32;;;;;;;30.73;31.40;94711.06;4210203;28;20408;-51
2022/07/24 08:37:01;;;;;;;15.25;8.32;;;;;;;30.81;31.25;94718.56;4214575;28;20047;-51
2022/07/24 08:39:03;;;;;;;14.45;8.27;;;;;;;30.78;31.14;94719.13;4226329;28;20052;-52
2022/07/24 08:41:12;;;;;;;18.95;8.73;;;;;;;30.95;31.54;94714.09;4214703;28;20052;-51
2022/07/24 08:43:14;;;;;;;17.20;8.30;;;;;;;31.08;31.69;94711.81;4209000;28;20109;-55
2022/07/24 08:45:16;;;;;;;18.65;9.63;;;;;;;31.13;31.24;94714.47;4217827;28;20138;-51
2022/07/24 08:47:18;;;;;;;21.23;8.35;;;;;;;31.19;31.20;94713.31;4213391;28;22284;-54
2022/07/24 08:49:24;;;;;;;21.55;9.82;;;;;;;31.23;31.12;94708.94;4224416;28;20428;-52
2022/07/24 08:51:35;;;;;;;23.63;8.75;;;;;;;31.23;31.03;94706.22;4221209;28;20463;-51
2022/07/24 08:53:37;;;;;;;13.88;8.45;;;;;;;31.19;31.07;94706.00;4215161;28;20816;-53
2022/07/24 08:55:39;;;;;;;17.98;8.70;;;;;;;31.11;31.25;94706.66;4211965;28;20051;-49
2022/07/24 08:57:41;;;;;;;18.17;8.95;;;;;;;31.06;31.37;94705.88;4214698;28;20048;-55
2022/07/24 08:59:42;;;;;;;19.05;9.05;;;;;;;31.01;30.91;94709.47;4220173;28;20469;-53
2022/07/24 09:01:45;;;;;;;13.43;8.18;;;;;;;31.05;30.91;94707.78;4223309;28;20055;-57
2022/07/24 09:03:47;;;;;;;12.60;8.10;;;;;;;31.15;30.94;94706.88;3509864;27;10000456;-54
2022/07/24 09:05:56;;;;;;;12.75;8.50;;;;;;;31.13;31.67;94706.38;4223474;28;20055;-55
2022/07/24 09:08:11;;;;;;;15.88;8.48;;;;;;;31.19;31.40;94710.59;4217723;28;20458;-55
2022/07/24 09:10:16;;;;;;;16.23;7.75;;;;;;;31.33;31.48;94703.41;4211058;28;20047;-54
2022/07/24 09:12:17;;;;;;;13.90;8.85;;;;;;;31.34;31.36;94707.72;4215837;28;20138;-57
2022/07/24 09:14:31;;;;;;;15.70;8.63;;;;;;;31.29;30.81;94701.56;4215776;28;20040;-53
2022/07/24 09:16:33;;;;;;;19.13;8.80;;;;;;;31.22;31.28;94700.00;3865857;27;9999761;-51
2022/07/24 09:18:35;;;;;;;17.38;8.70;;;;;;;31.47;31.29;94700.00;4216079;28;20083;-58
2022/07/24 09:20:38;;;;;;;13.10;9.18;;;;;;;31.69;30.62;94699.47;4217275;28;20048;-58
2022/07/24 09:22:41;;;;;;;19.73;8.50;;;;;;;31.80;30.55;94701.72;4216555;28;20175;-60
2022/07/24 09:24:43;;;;;;;20.67;10.25;;;;;;;31.97;30.79;94705.81;3859327;27;9999761;-61
2022/07/24 09:26:55;;;;;;;19.38;9.18;;;;;;;32.06;30.09;94698.66;4226846;28;20489;-62
2022/07/24 09:28:56;;;;;;;14.52;8.77;;;;;;;32.03;30.39;94704.69;4216582;28;20048;-61
2022/07/24 09:31:02;;;;;;;17.20;8.95;;;;;;;31.92;30.51;94703.16;4226642;28;20124;-58